sensor_id;sensor_type;location;lat;lon;timestamp;temperature;humidity
37794;DHT22;23632;48.826;15.176;2023-05-29T00:01:42;21.10;53.60
37794;DHT22;23632;48.826;15.176;2023-05-29T00:04:09;21.10;53.80
37794;DHT22;23632;48.826;15.176;2023-05-29T00:06:39;21.10;53.80
37794;DHT22;23632;48.826;15.176;2023-05-29T00:09:06;21.10;53.90
37794;DHT22;23632;48.826;15.176;2023-05-29T00:11:33;21.10;53.90
37794;DHT22;23632;48.826;15.176;2023-05-29T00:14:00;21.00;53.80
37794;DHT22;23632;48.826;15.176;2023-05-29T00:16:27;21.00;53.90
37794;DHT22;23632;48.826;15.176;2023-05-29T00:18:56;21.00;55.20
37794;DHT22;23632;48.826;15.176;2023-05-29T00:21:24;21.00;54.00
37794;DHT22;23632;48.826;15.176;2023-05-29T00:23:52;21.00;54.00
37794;DHT22;23632;48.826;15.176;2023-05-29T00:26:19;21.00;54.00
37794;DHT22;23632;48.826;15.176;2023-05-29T00:28:52;20.90;54.00
37794;DHT22;23632;48.826;15.176;2023-05-29T00:31:19;20.90;54.00
37794;DHT22;23632;48.826;15.176;2023-05-29T00:33:46;20.90;54.10
37794;DHT22;23632;48.826;15.176;2023-05-29T00:36:14;20.90;54.10
37794;DHT22;23632;48.826;15.176;2023-05-29T00:38:42;20.90;54.20
37794;DHT22;23632;48.826;15.176;2023-05-29T00:41:13;20.80;54.00
37794;DHT22;23632;48.826;15.176;2023-05-29T00:43:42;20.80;54.10
37794;DHT22;23632;48.826;15.176;2023-05-29T00:46:13;20.80;54.10
37794;DHT22;23632;48.826;15.176;2023-05-29T00:48:41;20.80;54.20
37794;DHT22;23632;48.826;15.176;2023-05-29T00:51:10;20.80;54.20
37794;DHT22;23632;48.826;15.176;2023-05-29T00:53:40;20.70;54.10
37794;DHT22;23632;48.826;15.176;2023-05-29T00:56:09;20.80;54.30
37794;DHT22;23632;48.826;15.176;2023-05-29T00:58:36;20.70;54.20
37794;DHT22;23632;48.826;15.176;2023-05-29T01:01:04;20.70;54.20
37794;DHT22;23632;48.826;15.176;2023-05-29T01:03:32;20.70;54.20
37794;DHT22;23632;48.826;15.176;2023-05-29T01:06:00;20.70;54.20
37794;DHT22;23632;48.826;15.176;2023-05-29T01:08:28;20.70;54.20
37794;DHT22;23632;48.826;15.176;2023-05-29T01:11:01;20.60;54.10
37794;DHT22;23632;48.826;15.176;2023-05-29T01:13:36;20.60;54.30
37794;DHT22;23632;48.826;15.176;2023-05-29T01:22:12;20.60;54.30
37794;DHT22;23632;48.826;15.176;2023-05-29T01:24:58;20.60;54.30
37794;DHT22;23632;48.826;15.176;2023-05-29T01:27:43;20.50;54.20
37794;DHT22;23632;48.826;15.176;2023-05-29T01:30:15;20.50;54.20
37794;DHT22;23632;48.826;15.176;2023-05-29T01:32:43;20.50;54.40
37794;DHT22;23632;48.826;15.176;2023-05-29T01:35:13;20.50;54.40
37794;DHT22;23632;48.826;15.176;2023-05-29T01:37:40;20.50;54.40
37794;DHT22;23632;48.826;15.176;2023-05-29T01:40:08;20.40;54.30
37794;DHT22;23632;48.826;15.176;2023-05-29T01:42:36;20.40;54.30
37794;DHT22;23632;48.826;15.176;2023-05-29T01:45:04;20.40;54.40
37794;DHT22;23632;48.826;15.176;2023-05-29T01:47:33;20.40;55.60
37794;DHT22;23632;48.826;15.176;2023-05-29T01:50:03;20.40;54.40
37794;DHT22;23632;48.826;15.176;2023-05-29T01:52:31;20.40;54.60
37794;DHT22;23632;48.826;15.176;2023-05-29T01:54:58;20.30;54.40
37794;DHT22;23632;48.826;15.176;2023-05-29T01:57:26;20.30;54.40
37794;DHT22;23632;48.826;15.176;2023-05-29T01:59:53;20.30;54.40
37794;DHT22;23632;48.826;15.176;2023-05-29T02:02:24;20.30;54.50
37794;DHT22;23632;48.826;15.176;2023-05-29T02:04:51;20.30;54.60
37794;DHT22;23632;48.826;15.176;2023-05-29T02:07:18;20.20;54.50
37794;DHT22;23632;48.826;15.176;2023-05-29T02:09:46;20.30;54.50
37794;DHT22;23632;48.826;15.176;2023-05-29T02:12:13;20.20;54.40
37794;DHT22;23632;48.826;15.176;2023-05-29T02:14:42;20.20;54.50
37794;DHT22;23632;48.826;15.176;2023-05-29T02:17:10;20.20;54.50
37794;DHT22;23632;48.826;15.176;2023-05-29T02:19:37;20.20;54.60
37794;DHT22;23632;48.826;15.176;2023-05-29T02:22:04;20.10;54.50
37794;DHT22;23632;48.826;15.176;2023-05-29T02:24:33;20.20;54.70
37794;DHT22;23632;48.826;15.176;2023-05-29T02:27:00;20.10;54.60
37794;DHT22;23632;48.826;15.176;2023-05-29T02:29:27;20.20;54.80
37794;DHT22;23632;48.826;15.176;2023-05-29T02:31:55;20.10;54.60
37794;DHT22;23632;48.826;15.176;2023-05-29T02:34:22;20.10;54.70
37794;DHT22;23632;48.826;15.176;2023-05-29T02:36:50;20.10;54.80
37794;DHT22;23632;48.826;15.176;2023-05-29T02:39:21;20.00;54.80
37794;DHT22;23632;48.826;15.176;2023-05-29T02:41:48;20.10;54.80
37794;DHT22;23632;48.826;15.176;2023-05-29T02:44:15;20.10;54.80
37794;DHT22;23632;48.826;15.176;2023-05-29T02:46:42;20.00;54.80
37794;DHT22;23632;48.826;15.176;2023-05-29T02:49:09;20.00;54.70
37794;DHT22;23632;48.826;15.176;2023-05-29T02:51:36;20.00;54.80
37794;DHT22;23632;48.826;15.176;2023-05-29T02:54:04;20.00;54.90
37794;DHT22;23632;48.826;15.176;2023-05-29T02:56:31;20.00;54.90
37794;DHT22;23632;48.826;15.176;2023-05-29T02:58:58;19.90;54.80
37794;DHT22;23632;48.826;15.176;2023-05-29T03:01:25;19.90;54.90
37794;DHT22;23632;48.826;15.176;2023-05-29T03:03:53;19.90;54.90
37794;DHT22;23632;48.826;15.176;2023-05-29T03:06:22;19.80;54.80
37794;DHT22;23632;48.826;15.176;2023-05-29T03:08:49;19.80;54.80
37794;DHT22;23632;48.826;15.176;2023-05-29T03:11:16;19.80;54.80
37794;DHT22;23632;48.826;15.176;2023-05-29T03:13:44;19.80;54.90
37794;DHT22;23632;48.826;15.176;2023-05-29T03:16:13;19.70;54.90
37794;DHT22;23632;48.826;15.176;2023-05-29T03:18:42;19.70;55.00
37794;DHT22;23632;48.826;15.176;2023-05-29T03:21:11;19.70;55.10
37794;DHT22;23632;48.826;15.176;2023-05-29T03:23:38;19.70;55.10
37794;DHT22;23632;48.826;15.176;2023-05-29T03:26:05;19.60;55.00
37794;DHT22;23632;48.826;15.176;2023-05-29T03:28:34;19.60;55.10
37794;DHT22;23632;48.826;15.176;2023-05-29T03:31:05;19.60;55.10
37794;DHT22;23632;48.826;15.176;2023-05-29T03:33:32;19.60;55.10
37794;DHT22;23632;48.826;15.176;2023-05-29T03:36:06;19.50;55.10
37794;DHT22;23632;48.826;15.176;2023-05-29T03:38:35;19.50;55.20
37794;DHT22;23632;48.826;15.176;2023-05-29T03:41:03;19.50;55.20
37794;DHT22;23632;48.826;15.176;2023-05-29T03:43:30;19.50;55.30
37794;DHT22;23632;48.826;15.176;2023-05-29T03:45:57;19.50;55.40
37794;DHT22;23632;48.826;15.176;2023-05-29T03:48:27;19.50;55.50
37794;DHT22;23632;48.826;15.176;2023-05-29T03:50:54;19.50;55.50
37794;DHT22;23632;48.826;15.176;2023-05-29T03:53:28;19.40;55.50
37794;DHT22;23632;48.826;15.176;2023-05-29T03:55:56;19.40;55.60
37794;DHT22;23632;48.826;15.176;2023-05-29T03:58:23;19.40;55.60
37794;DHT22;23632;48.826;15.176;2023-05-29T04:00:52;19.40;55.90
37794;DHT22;23632;48.826;15.176;2023-05-29T04:03:20;19.40;55.90
37794;DHT22;23632;48.826;15.176;2023-05-29T04:05:47;19.40;55.90
37794;DHT22;23632;48.826;15.176;2023-05-29T04:08:14;19.40;56.00
37794;DHT22;23632;48.826;15.176;2023-05-29T04:10:42;19.30;56.00
37794;DHT22;23632;48.826;15.176;2023-05-29T04:13:10;19.40;56.20
37794;DHT22;23632;48.826;15.176;2023-05-29T04:15:38;19.40;57.50
37794;DHT22;23632;48.826;15.176;2023-05-29T04:18:05;19.40;56.30
37794;DHT22;23632;48.826;15.176;2023-05-29T04:20:33;19.30;56.20
37794;DHT22;23632;48.826;15.176;2023-05-29T04:23:00;19.40;56.40
37794;DHT22;23632;48.826;15.176;2023-05-29T04:25:27;19.30;56.30
37794;DHT22;23632;48.826;15.176;2023-05-29T04:27:54;19.40;56.50
37794;DHT22;23632;48.826;15.176;2023-05-29T04:30:22;19.30;56.40
37794;DHT22;23632;48.826;15.176;2023-05-29T04:32:49;19.40;56.70
37794;DHT22;23632;48.826;15.176;2023-05-29T04:35:21;19.30;56.70
37794;DHT22;23632;48.826;15.176;2023-05-29T04:38:02;19.40;56.90
37794;DHT22;23632;48.826;15.176;2023-05-29T04:40:31;19.30;56.90
37794;DHT22;23632;48.826;15.176;2023-05-29T04:42:59;19.40;57.00
37794;DHT22;23632;48.826;15.176;2023-05-29T04:45:30;19.40;57.20
37794;DHT22;23632;48.826;15.176;2023-05-29T04:47:57;19.30;57.20
37794;DHT22;23632;48.826;15.176;2023-05-29T04:50:25;19.30;57.30
37794;DHT22;23632;48.826;15.176;2023-05-29T04:52:56;19.30;57.40
37794;DHT22;23632;48.826;15.176;2023-05-29T04:55:24;19.30;57.40
37794;DHT22;23632;48.826;15.176;2023-05-29T04:57:51;19.30;57.50
37794;DHT22;23632;48.826;15.176;2023-05-29T05:00:19;19.40;57.70
37794;DHT22;23632;48.826;15.176;2023-05-29T05:02:46;19.30;57.60
37794;DHT22;23632;48.826;15.176;2023-05-29T05:05:13;19.30;57.70
37794;DHT22;23632;48.826;15.176;2023-05-29T05:07:41;19.40;57.90
37794;DHT22;23632;48.826;15.176;2023-05-29T05:10:09;19.40;58.00
37794;DHT22;23632;48.826;15.176;2023-05-29T05:12:36;19.40;58.10
37794;DHT22;23632;48.826;15.176;2023-05-29T05:15:04;19.40;58.20
37794;DHT22;23632;48.826;15.176;2023-05-29T05:17:32;19.30;58.10
37794;DHT22;23632;48.826;15.176;2023-05-29T05:20:00;19.40;58.30
37794;DHT22;23632;48.826;15.176;2023-05-29T05:22:27;19.40;58.40
37794;DHT22;23632;48.826;15.176;2023-05-29T05:24:55;19.30;58.40
37794;DHT22;23632;48.826;15.176;2023-05-29T05:27:23;19.40;58.60
37794;DHT22;23632;48.826;15.176;2023-05-29T05:29:52;19.40;58.70
37794;DHT22;23632;48.826;15.176;2023-05-29T05:32:19;19.40;58.80
37794;DHT22;23632;48.826;15.176;2023-05-29T05:34:53;19.40;58.90
37794;DHT22;23632;48.826;15.176;2023-05-29T05:37:20;19.40;59.00
37794;DHT22;23632;48.826;15.176;2023-05-29T05:39:50;19.40;60.10
37794;DHT22;23632;48.826;15.176;2023-05-29T05:42:17;19.40;60.20
37794;DHT22;23632;48.826;15.176;2023-05-29T05:44:50;19.50;59.30
37794;DHT22;23632;48.826;15.176;2023-05-29T05:47:18;19.50;59.40
37794;DHT22;23632;48.826;15.176;2023-05-29T05:49:45;19.50;59.50
37794;DHT22;23632;48.826;15.176;2023-05-29T05:52:13;19.50;59.70
37794;DHT22;23632;48.826;15.176;2023-05-29T05:54:40;19.60;59.80
37794;DHT22;23632;48.826;15.176;2023-05-29T05:57:07;19.50;59.80
37794;DHT22;23632;48.826;15.176;2023-05-29T05:59:36;19.60;60.00
37794;DHT22;23632;48.826;15.176;2023-05-29T06:02:05;19.60;60.00
37794;DHT22;23632;48.826;15.176;2023-05-29T06:04:35;19.60;60.00
37794;DHT22;23632;48.826;15.176;2023-05-29T06:07:02;19.60;60.00
37794;DHT22;23632;48.826;15.176;2023-05-29T06:09:30;19.60;60.00
37794;DHT22;23632;48.826;15.176;2023-05-29T06:11:57;19.70;60.10
37794;DHT22;23632;48.826;15.176;2023-05-29T06:14:24;19.70;60.10
37794;DHT22;23632;48.826;15.176;2023-05-29T06:16:52;19.80;60.10
37794;DHT22;23632;48.826;15.176;2023-05-29T06:19:20;19.80;60.10
37794;DHT22;23632;48.826;15.176;2023-05-29T06:21:54;19.80;60.00
37794;DHT22;23632;48.826;15.176;2023-05-29T06:24:22;19.80;59.90
37794;DHT22;23632;48.826;15.176;2023-05-29T06:26:49;19.80;59.90
37794;DHT22;23632;48.826;15.176;2023-05-29T06:29:18;19.90;59.90
37794;DHT22;23632;48.826;15.176;2023-05-29T06:31:45;19.90;59.70
37794;DHT22;23632;48.826;15.176;2023-05-29T06:34:13;19.90;59.50
37794;DHT22;23632;48.826;15.176;2023-05-29T06:36:41;20.00;59.40
37794;DHT22;23632;48.826;15.176;2023-05-29T06:39:09;20.00;59.40
37794;DHT22;23632;48.826;15.176;2023-05-29T06:41:37;20.00;59.30
37794;DHT22;23632;48.826;15.176;2023-05-29T06:44:05;20.00;59.20
37794;DHT22;23632;48.826;15.176;2023-05-29T06:46:32;20.00;59.20
37794;DHT22;23632;48.826;15.176;2023-05-29T06:49:00;20.10;59.30
37794;DHT22;23632;48.826;15.176;2023-05-29T06:51:33;20.10;59.20
37794;DHT22;23632;48.826;15.176;2023-05-29T06:54:32;20.10;59.20
37794;DHT22;23632;48.826;15.176;2023-05-29T06:57:00;20.10;59.20
37794;DHT22;23632;48.826;15.176;2023-05-29T06:59:38;20.20;59.10
37794;DHT22;23632;48.826;15.176;2023-05-29T07:02:06;20.20;59.00
37794;DHT22;23632;48.826;15.176;2023-05-29T07:04:34;20.20;59.00
37794;DHT22;23632;48.826;15.176;2023-05-29T07:07:02;20.30;59.10
37794;DHT22;23632;48.826;15.176;2023-05-29T07:09:29;20.20;58.90
37794;DHT22;23632;48.826;15.176;2023-05-29T07:11:56;20.30;59.10
37794;DHT22;23632;48.826;15.176;2023-05-29T07:14:23;20.30;59.10
37794;DHT22;23632;48.826;15.176;2023-05-29T07:16:51;20.40;59.20
37794;DHT22;23632;48.826;15.176;2023-05-29T07:19:19;20.40;59.30
37794;DHT22;23632;48.826;15.176;2023-05-29T07:21:49;20.40;59.10
37794;DHT22;23632;48.826;15.176;2023-05-29T07:24:19;20.40;59.10
37794;DHT22;23632;48.826;15.176;2023-05-29T07:26:46;20.50;59.20
37794;DHT22;23632;48.826;15.176;2023-05-29T07:29:13;20.50;59.10
37794;DHT22;23632;48.826;15.176;2023-05-29T07:31:41;20.50;59.10
37794;DHT22;23632;48.826;15.176;2023-05-29T07:34:09;20.50;59.00
37794;DHT22;23632;48.826;15.176;2023-05-29T07:37:04;20.60;59.00
37794;DHT22;23632;48.826;15.176;2023-05-29T07:39:35;20.60;58.80
37794;DHT22;23632;48.826;15.176;2023-05-29T07:42:12;20.60;58.70
37794;DHT22;23632;48.826;15.176;2023-05-29T07:44:42;20.60;58.60
37794;DHT22;23632;48.826;15.176;2023-05-29T07:47:09;20.60;58.70
37794;DHT22;23632;48.826;15.176;2023-05-29T07:49:44;20.70;60.00
37794;DHT22;23632;48.826;15.176;2023-05-29T07:52:11;20.70;58.70
37794;DHT22;23632;48.826;15.176;2023-05-29T07:54:38;20.70;58.60
37794;DHT22;23632;48.826;15.176;2023-05-29T07:57:08;20.70;58.60
37794;DHT22;23632;48.826;15.176;2023-05-29T07:59:40;20.80;58.40
37794;DHT22;23632;48.826;15.176;2023-05-29T08:02:09;20.80;58.00
37794;DHT22;23632;48.826;15.176;2023-05-29T08:04:54;20.80;58.00
37794;DHT22;23632;48.826;15.176;2023-05-29T08:07:23;20.80;58.00
37794;DHT22;23632;48.826;15.176;2023-05-29T08:09:50;20.80;58.10
37794;DHT22;23632;48.826;15.176;2023-05-29T08:12:17;20.90;58.00
37794;DHT22;23632;48.826;15.176;2023-05-29T08:14:44;20.90;58.00
37794;DHT22;23632;48.826;15.176;2023-05-29T08:17:13;20.90;58.10
37794;DHT22;23632;48.826;15.176;2023-05-29T08:19:40;20.90;58.00
37794;DHT22;23632;48.826;15.176;2023-05-29T08:22:07;20.90;58.00
37794;DHT22;23632;48.826;15.176;2023-05-29T08:24:39;21.00;58.00
37794;DHT22;23632;48.826;15.176;2023-05-29T08:27:06;21.00;58.00
37794;DHT22;23632;48.826;15.176;2023-05-29T08:29:33;21.00;58.00
37794;DHT22;23632;48.826;15.176;2023-05-29T08:32:03;21.00;57.80
37794;DHT22;23632;48.826;15.176;2023-05-29T08:34:31;21.10;57.80
37794;DHT22;23632;48.826;15.176;2023-05-29T08:36:58;21.10;57.90
37794;DHT22;23632;48.826;15.176;2023-05-29T08:39:25;21.10;57.80
37794;DHT22;23632;48.826;15.176;2023-05-29T08:42:04;21.10;57.70
37794;DHT22;23632;48.826;15.176;2023-05-29T08:44:35;21.20;57.70
37794;DHT22;23632;48.826;15.176;2023-05-29T08:47:03;21.20;57.50
37794;DHT22;23632;48.826;15.176;2023-05-29T08:49:39;21.20;57.50
37794;DHT22;23632;48.826;15.176;2023-05-29T08:52:13;21.20;57.40
37794;DHT22;23632;48.826;15.176;2023-05-29T08:54:44;21.30;57.50
37794;DHT22;23632;48.826;15.176;2023-05-29T08:57:12;21.30;57.60
37794;DHT22;23632;48.826;15.176;2023-05-29T08:59:42;21.30;57.40
37794;DHT22;23632;48.826;15.176;2023-05-29T09:02:11;21.40;57.50
37794;DHT22;23632;48.826;15.176;2023-05-29T09:04:41;21.40;57.50
37794;DHT22;23632;48.826;15.176;2023-05-29T09:07:12;21.40;57.40
37794;DHT22;23632;48.826;15.176;2023-05-29T09:09:40;21.40;57.30
37794;DHT22;23632;48.826;15.176;2023-05-29T09:12:07;21.50;57.30
37794;DHT22;23632;48.826;15.176;2023-05-29T09:14:40;21.50;57.40
37794;DHT22;23632;48.826;15.176;2023-05-29T09:17:10;21.50;57.30
37794;DHT22;23632;48.826;15.176;2023-05-29T09:19:39;21.50;57.40
37794;DHT22;23632;48.826;15.176;2023-05-29T09:22:15;21.60;57.40
37794;DHT22;23632;48.826;15.176;2023-05-29T09:24:46;21.60;57.40
37794;DHT22;23632;48.826;15.176;2023-05-29T09:27:15;21.60;57.20
37794;DHT22;23632;48.826;15.176;2023-05-29T09:29:43;21.60;57.00
37794;DHT22;23632;48.826;15.176;2023-05-29T09:32:15;21.70;57.10
37794;DHT22;23632;48.826;15.176;2023-05-29T09:34:44;21.70;57.00
37794;DHT22;23632;48.826;15.176;2023-05-29T09:37:12;21.70;57.00
37794;DHT22;23632;48.826;15.176;2023-05-29T09:42:12;21.80;56.70
37794;DHT22;23632;48.826;15.176;2023-05-29T09:44:41;21.80;56.60
37794;DHT22;23632;48.826;15.176;2023-05-29T09:47:08;21.90;56.80
37794;DHT22;23632;48.826;15.176;2023-05-29T09:49:41;21.90;56.90
37794;DHT22;23632;48.826;15.176;2023-05-29T09:52:08;21.90;56.70
37794;DHT22;23632;48.826;15.176;2023-05-29T09:54:42;21.90;56.80
37794;DHT22;23632;48.826;15.176;2023-05-29T09:57:13;22.00;58.10
37794;DHT22;23632;48.826;15.176;2023-05-29T09:59:44;22.00;56.90
37794;DHT22;23632;48.826;15.176;2023-05-29T10:02:12;22.00;56.80
37794;DHT22;23632;48.826;15.176;2023-05-29T10:04:41;22.10;56.80
37794;DHT22;23632;48.826;15.176;2023-05-29T10:07:31;22.10;56.80
37794;DHT22;23632;48.826;15.176;2023-05-29T10:10:03;22.10;56.80
37794;DHT22;23632;48.826;15.176;2023-05-29T10:12:34;22.20;56.80
37794;DHT22;23632;48.826;15.176;2023-05-29T10:15:09;22.20;56.80
37794;DHT22;23632;48.826;15.176;2023-05-29T10:17:50;22.20;56.50
37794;DHT22;23632;48.826;15.176;2023-05-29T10:20:20;22.30;56.20
37794;DHT22;23632;48.826;15.176;2023-05-29T10:22:50;22.30;56.10
37794;DHT22;23632;48.826;15.176;2023-05-29T10:25:19;22.30;56.20
37794;DHT22;23632;48.826;15.176;2023-05-29T10:27:48;22.30;56.20
37794;DHT22;23632;48.826;15.176;2023-05-29T10:30:35;22.40;56.30
37794;DHT22;23632;48.826;15.176;2023-05-29T10:33:09;22.40;56.10
37794;DHT22;23632;48.826;15.176;2023-05-29T10:35:53;22.50;56.20
37794;DHT22;23632;48.826;15.176;2023-05-29T10:38:24;22.50;56.30
37794;DHT22;23632;48.826;15.176;2023-05-29T10:40:53;22.50;56.10
37794;DHT22;23632;48.826;15.176;2023-05-29T10:43:46;22.50;56.10
37794;DHT22;23632;48.826;15.176;2023-05-29T10:46:13;22.60;56.10
37794;DHT22;23632;48.826;15.176;2023-05-29T10:48:41;22.60;56.00
37794;DHT22;23632;48.826;15.176;2023-05-29T10:51:24;22.60;56.00
37794;DHT22;23632;48.826;15.176;2023-05-29T10:53:52;22.70;56.00
37794;DHT22;23632;48.826;15.176;2023-05-29T10:56:27;22.70;55.90
37794;DHT22;23632;48.826;15.176;2023-05-29T10:58:57;22.70;55.80
37794;DHT22;23632;48.826;15.176;2023-05-29T11:01:28;22.70;55.80
37794;DHT22;23632;48.826;15.176;2023-05-29T11:06:44;22.80;55.80
37794;DHT22;23632;48.826;15.176;2023-05-29T11:09:32;22.80;55.80
37794;DHT22;23632;48.826;15.176;2023-05-29T11:12:15;22.80;55.70
37794;DHT22;23632;48.826;15.176;2023-05-29T11:15:06;22.90;55.70
37794;DHT22;23632;48.826;15.176;2023-05-29T11:20:08;22.90;55.90
37794;DHT22;23632;48.826;15.176;2023-05-29T11:25:27;22.90;55.80
37794;DHT22;23632;48.826;15.176;2023-05-29T11:27:55;23.00;57.30
37794;DHT22;23632;48.826;15.176;2023-05-29T11:30:23;23.00;56.00
37794;DHT22;23632;48.826;15.176;2023-05-29T11:32:52;23.00;56.00
37794;DHT22;23632;48.826;15.176;2023-05-29T11:35:22;23.10;56.00
37794;DHT22;23632;48.826;15.176;2023-05-29T11:37:49;23.10;56.00
37794;DHT22;23632;48.826;15.176;2023-05-29T11:40:18;23.10;55.70
37794;DHT22;23632;48.826;15.176;2023-05-29T11:42:46;23.10;55.80
37794;DHT22;23632;48.826;15.176;2023-05-29T11:45:21;23.20;55.80
37794;DHT22;23632;48.826;15.176;2023-05-29T11:47:56;23.20;55.60
37794;DHT22;23632;48.826;15.176;2023-05-29T11:50:29;23.20;55.70
37794;DHT22;23632;48.826;15.176;2023-05-29T11:52:58;23.30;55.80
37794;DHT22;23632;48.826;15.176;2023-05-29T11:55:26;23.30;55.70
37794;DHT22;23632;48.826;15.176;2023-05-29T11:58:02;23.30;55.70
37794;DHT22;23632;48.826;15.176;2023-05-29T12:00:37;23.40;55.70
37794;DHT22;23632;48.826;15.176;2023-05-29T12:03:06;23.40;55.70
37794;DHT22;23632;48.826;15.176;2023-05-29T12:05:46;23.40;55.60
37794;DHT22;23632;48.826;15.176;2023-05-29T12:08:16;23.40;55.50
37794;DHT22;23632;48.826;15.176;2023-05-29T12:10:47;23.40;55.50
37794;DHT22;23632;48.826;15.176;2023-05-29T12:13:15;23.40;55.30
37794;DHT22;23632;48.826;15.176;2023-05-29T12:15:47;23.50;55.50
37794;DHT22;23632;48.826;15.176;2023-05-29T12:18:15;23.50;55.30
37794;DHT22;23632;48.826;15.176;2023-05-29T12:20:42;23.50;55.20
37794;DHT22;23632;48.826;15.176;2023-05-29T12:23:10;23.50;55.20
37794;DHT22;23632;48.826;15.176;2023-05-29T12:25:40;23.50;55.10
37794;DHT22;23632;48.826;15.176;2023-05-29T12:28:15;23.50;55.10
37794;DHT22;23632;48.826;15.176;2023-05-29T12:30:47;23.50;55.00
37794;DHT22;23632;48.826;15.176;2023-05-29T12:33:31;23.60;55.00
37794;DHT22;23632;48.826;15.176;2023-05-29T12:36:07;23.60;54.90
37794;DHT22;23632;48.826;15.176;2023-05-29T12:38:50;23.60;54.90
37794;DHT22;23632;48.826;15.176;2023-05-29T12:41:27;23.70;54.90
37794;DHT22;23632;48.826;15.176;2023-05-29T12:43:56;23.70;54.90
37794;DHT22;23632;48.826;15.176;2023-05-29T12:46:27;23.70;55.00
37794;DHT22;23632;48.826;15.176;2023-05-29T12:48:55;23.70;54.90
37794;DHT22;23632;48.826;15.176;2023-05-29T12:51:24;23.70;54.90
37794;DHT22;23632;48.826;15.176;2023-05-29T12:53:52;23.80;54.90
37794;DHT22;23632;48.826;15.176;2023-05-29T12:56:22;23.80;54.80
37794;DHT22;23632;48.826;15.176;2023-05-29T12:58:51;23.80;54.80
37794;DHT22;23632;48.826;15.176;2023-05-29T13:01:18;23.90;54.80
37794;DHT22;23632;48.826;15.176;2023-05-29T13:03:48;23.90;54.80
37794;DHT22;23632;48.826;15.176;2023-05-29T13:06:16;23.90;54.90
37794;DHT22;23632;48.826;15.176;2023-05-29T13:08:43;24.00;54.80
37794;DHT22;23632;48.826;15.176;2023-05-29T13:11:10;24.00;54.70
37794;DHT22;23632;48.826;15.176;2023-05-29T13:13:37;24.10;54.80
37794;DHT22;23632;48.826;15.176;2023-05-29T13:16:05;24.10;55.90
37794;DHT22;23632;48.826;15.176;2023-05-29T13:18:33;24.10;54.50
37794;DHT22;23632;48.826;15.176;2023-05-29T13:21:00;24.20;55.70
37794;DHT22;23632;48.826;15.176;2023-05-29T13:23:28;24.20;54.30
37794;DHT22;23632;48.826;15.176;2023-05-29T13:25:55;24.20;55.40
37794;DHT22;23632;48.826;15.176;2023-05-29T13:28:22;24.20;54.10
37794;DHT22;23632;48.826;15.176;2023-05-29T13:30:50;24.20;54.20
37794;DHT22;23632;48.826;15.176;2023-05-29T13:33:17;24.20;54.20
37794;DHT22;23632;48.826;15.176;2023-05-29T13:35:45;24.30;54.40
37794;DHT22;23632;48.826;15.176;2023-05-29T13:38:12;24.30;54.40
37794;DHT22;23632;48.826;15.176;2023-05-29T13:40:39;24.40;54.40
37794;DHT22;23632;48.826;15.176;2023-05-29T13:43:06;24.40;54.40
37794;DHT22;23632;48.826;15.176;2023-05-29T13:45:33;24.50;54.30
37794;DHT22;23632;48.826;15.176;2023-05-29T13:48:00;24.60;54.40
37794;DHT22;23632;48.826;15.176;2023-05-29T13:50:28;24.60;54.10
37794;DHT22;23632;48.826;15.176;2023-05-29T13:52:55;24.70;54.10
37794;DHT22;23632;48.826;15.176;2023-05-29T13:55:22;24.70;53.90
37794;DHT22;23632;48.826;15.176;2023-05-29T13:57:49;24.80;54.00
37794;DHT22;23632;48.826;15.176;2023-05-29T14:00:17;24.90;53.90
37794;DHT22;23632;48.826;15.176;2023-05-29T14:02:44;24.90;53.80
37794;DHT22;23632;48.826;15.176;2023-05-29T14:05:11;24.90;53.70
37794;DHT22;23632;48.826;15.176;2023-05-29T14:07:38;24.90;53.60
37794;DHT22;23632;48.826;15.176;2023-05-29T14:10:05;24.90;53.60
37794;DHT22;23632;48.826;15.176;2023-05-29T14:12:33;24.90;53.50
37794;DHT22;23632;48.826;15.176;2023-05-29T14:15:00;25.00;53.50
37794;DHT22;23632;48.826;15.176;2023-05-29T14:17:27;25.00;53.50
37794;DHT22;23632;48.826;15.176;2023-05-29T14:19:55;25.10;53.50
37794;DHT22;23632;48.826;15.176;2023-05-29T14:22:22;25.10;53.30
37794;DHT22;23632;48.826;15.176;2023-05-29T14:24:49;25.10;53.10
37794;DHT22;23632;48.826;15.176;2023-05-29T14:27:17;25.20;53.20
37794;DHT22;23632;48.826;15.176;2023-05-29T14:29:44;25.20;53.10
37794;DHT22;23632;48.826;15.176;2023-05-29T14:32:12;25.20;52.90
37794;DHT22;23632;48.826;15.176;2023-05-29T14:34:40;25.20;52.90
37794;DHT22;23632;48.826;15.176;2023-05-29T14:37:07;25.20;52.90
37794;DHT22;23632;48.826;15.176;2023-05-29T14:39:34;25.20;52.80
37794;DHT22;23632;48.826;15.176;2023-05-29T14:42:01;25.30;52.70
37794;DHT22;23632;48.826;15.176;2023-05-29T14:44:29;25.30;52.70
37794;DHT22;23632;48.826;15.176;2023-05-29T14:46:56;25.30;52.70
37794;DHT22;23632;48.826;15.176;2023-05-29T14:49:24;25.40;52.50
37794;DHT22;23632;48.826;15.176;2023-05-29T14:51:51;25.40;52.50
37794;DHT22;23632;48.826;15.176;2023-05-29T14:54:18;25.50;52.40
37794;DHT22;23632;48.826;15.176;2023-05-29T14:56:45;25.50;52.40
37794;DHT22;23632;48.826;15.176;2023-05-29T14:59:12;25.50;52.30
37794;DHT22;23632;48.826;15.176;2023-05-29T15:01:40;25.50;52.20
37794;DHT22;23632;48.826;15.176;2023-05-29T15:04:07;25.60;52.20
37794;DHT22;23632;48.826;15.176;2023-05-29T15:06:35;25.60;52.00
37794;DHT22;23632;48.826;15.176;2023-05-29T15:09:03;25.60;52.00
37794;DHT22;23632;48.826;15.176;2023-05-29T15:11:29;25.60;51.80
37794;DHT22;23632;48.826;15.176;2023-05-29T15:13:57;25.60;51.60
37794;DHT22;23632;48.826;15.176;2023-05-29T15:16:25;25.70;51.70
37794;DHT22;23632;48.826;15.176;2023-05-29T15:18:52;25.70;51.80
37794;DHT22;23632;48.826;15.176;2023-05-29T15:21:19;25.70;51.80
37794;DHT22;23632;48.826;15.176;2023-05-29T15:23:47;25.70;51.80
37794;DHT22;23632;48.826;15.176;2023-05-29T15:26:15;25.80;51.80
37794;DHT22;23632;48.826;15.176;2023-05-29T15:28:42;25.80;51.60
37794;DHT22;23632;48.826;15.176;2023-05-29T15:31:09;25.80;51.50
37794;DHT22;23632;48.826;15.176;2023-05-29T15:33:36;25.90;51.60
37794;DHT22;23632;48.826;15.176;2023-05-29T15:36:04;25.90;51.50
37794;DHT22;23632;48.826;15.176;2023-05-29T15:38:32;26.00;51.40
37794;DHT22;23632;48.826;15.176;2023-05-29T15:40:59;26.00;51.30
37794;DHT22;23632;48.826;15.176;2023-05-29T15:43:26;26.00;51.30
37794;DHT22;23632;48.826;15.176;2023-05-29T15:45:54;26.10;51.40